Time;durP1;ratioP1;P1;durP2;ratioP2;P2;SDS_P1;SDS_P2;PMS_P1;PMS_P2;Temp;Humidity;BMP_temperature;BMP_pressure;BME280_temperature;BME280_humidity;BME280_pressure;Samples;Min_cycle;Max_cycle;Signal;HPM_P1;HPM_P2
2022/05/30 00:02:20;;;;;;;4.05;2.15;;;;;;;16.63;51.97;99018.94;4442818;32;33833;-63
2022/05/30 00:04:48;;;;;;;4.32;1.90;;;;;;;16.72;51.88;99022.44;4456750;32;35245;-63
2022/05/30 00:07:16;;;;;;;3.85;2.33;;;;;;;16.60;51.85;99015.75;4450099;32;34393;-63
2022/05/30 00:09:47;;;;;;;4.12;1.83;;;;;;;16.61;52.03;99018.25;4443594;32;32167;-65
2022/05/30 00:12:15;;;;;;;4.22;2.20;;;;;;;16.70;51.99;99022.62;4439846;32;34432;-65
2022/05/30 00:14:42;;;;;;;4.82;2.28;;;;;;;16.69;52.05;99020.09;4438008;32;33667;-63
2022/05/30 00:17:10;;;;;;;4.47;2.20;;;;;;;16.79;52.05;99020.81;4444470;32;35115;-63
2022/05/30 00:19:39;;;;;;;4.60;1.65;;;;;;;16.71;52.32;99008.09;4446166;32;31891;-65
2022/05/30 00:22:11;;;;;;;7.75;2.20;;;;;;;16.73;52.56;99008.78;4449725;32;34889;-63
2022/05/30 00:24:39;;;;;;;4.95;2.00;;;;;;;16.83;52.04;99011.34;4448470;32;33844;-64
2022/05/30 00:27:06;;;;;;;5.78;2.25;;;;;;;16.86;51.86;99005.59;4443097;32;33779;-63
2022/05/30 00:29:34;;;;;;;5.62;2.35;;;;;;;16.87;51.86;99001.00;4445568;32;34767;-62
2022/05/30 00:32:02;;;;;;;4.97;2.60;;;;;;;16.85;52.15;99005.75;4440979;32;34120;-62
2022/05/30 00:34:29;;;;;;;4.30;2.67;;;;;;;16.88;52.35;98992.72;4446833;32;34117;-65
2022/05/30 00:36:57;;;;;;;3.92;2.10;;;;;;;16.81;53.26;98997.13;4445541;32;33861;-66
2022/05/30 00:39:24;;;;;;;4.12;2.10;;;;;;;16.87;53.72;98987.50;4448599;32;33118;-64
2022/05/30 00:41:52;;;;;;;4.35;2.33;;;;;;;16.83;53.90;98984.31;4449098;32;34106;-64
2022/05/30 00:44:20;;;;;;;5.72;2.40;;;;;;;16.92;53.46;98983.28;4449269;32;33741;-65
2022/05/30 00:46:47;;;;;;;3.60;2.10;;;;;;;16.98;52.96;98976.31;4446485;32;33793;-65
2022/05/30 00:49:15;;;;;;;6.95;2.58;;;;;;;16.59;53.99;98974.34;4446070;32;34120;-64
2022/05/30 00:51:45;;;;;;;5.47;2.53;;;;;;;17.00;52.86;98969.72;4446910;32;34804;-64
2022/05/30 00:54:29;;;;;;;3.37;2.35;;;;;;;16.94;52.89;98967.69;4445710;32;33665;-66
2022/05/30 00:56:59;;;;;;;5.40;2.45;;;;;;;17.04;52.74;98972.91;4448708;32;32567;-63
2022/05/30 00:59:27;;;;;;;4.35;2.30;;;;;;;17.08;52.06;98973.38;4448406;32;32648;-66
2022/05/30 01:01:54;;;;;;;4.75;2.50;;;;;;;17.06;51.60;98970.03;4450089;32;33667;-63
2022/05/30 01:07:09;;;;;;;5.97;2.50;;;;;;;16.84;52.36;98967.06;4450332;32;33972;-63
2022/05/30 01:09:40;;;;;;;4.28;2.37;;;;;;;16.93;52.59;98966.03;4448304;32;32818;-62
2022/05/30 01:12:10;;;;;;;8.00;3.08;;;;;;;16.64;52.73;98966.59;4450899;32;34588;-63
2022/05/30 01:14:41;;;;;;;4.65;2.47;;;;;;;16.69;52.54;98966.94;4450117;32;34841;-63
2022/05/30 01:17:14;;;;;;;5.85;2.90;;;;;;;16.57;53.22;98970.16;4449932;32;33901;-63
2022/05/30 01:19:45;;;;;;;5.35;3.03;;;;;;;16.71;52.79;98959.47;4449291;32;33667;-62
2022/05/30 01:22:29;;;;;;;5.62;2.60;;;;;;;16.85;52.40;98955.22;4448465;32;33817;-63
2022/05/30 01:25:25;;;;;;;8.85;2.83;;;;;;;16.90;52.45;98955.56;4449784;32;33605;-67
2022/05/30 01:28:03;;;;;;;3.20;2.10;;;;;;;16.90;52.29;98958.25;4434931;32;34362;-63
2022/05/30 01:30:34;;;;;;;5.65;2.72;;;;;;;16.91;52.21;98951.00;4446423;32;33253;-63
2022/05/30 01:33:02;;;;;;;5.15;2.78;;;;;;;16.88;52.25;98948.63;4448811;32;33537;-65
2022/05/30 01:35:30;;;;;;;5.20;2.42;;;;;;;16.86;52.54;98943.41;4449920;32;33878;-64
2022/05/30 01:37:59;;;;;;;6.25;2.70;;;;;;;16.80;53.32;98946.81;4449061;32;32695;-63
2022/05/30 01:40:27;;;;;;;5.40;2.62;;;;;;;16.94;52.89;98940.66;4450679;32;35100;-64
2022/05/30 01:42:55;;;;;;;4.95;2.97;;;;;;;16.98;52.39;98938.47;4449575;32;33196;-64
2022/05/30 01:45:25;;;;;;;5.32;2.45;;;;;;;16.99;52.07;98949.09;4451424;32;32830;-64
2022/05/30 01:47:54;;;;;;;6.20;2.65;;;;;;;16.95;51.99;98947.78;4448991;32;33057;-63
2022/05/30 01:50:23;;;;;;;4.95;2.30;;;;;;;16.92;51.88;98945.44;4450623;32;33331;-66
2022/05/30 01:52:50;;;;;;;8.35;2.87;;;;;;;16.93;51.98;98943.56;4449769;32;33737;-65
2022/05/30 01:55:20;;;;;;;5.40;2.50;;;;;;;16.95;52.04;98938.81;4449908;32;34260;-65
2022/05/30 01:57:48;;;;;;;5.65;2.33;;;;;;;17.03;51.88;98937.94;4449676;32;33403;-64
2022/05/30 02:00:25;;;;;;;5.93;2.78;;;;;;;16.95;52.13;98945.09;4448889;32;33544;-63
2022/05/30 02:02:52;;;;;;;3.97;2.05;;;;;;;17.06;51.54;98937.59;4443696;32;32784;-64
2022/05/30 02:05:21;;;;;;;4.65;2.53;;;;;;;16.94;52.29;98946.06;4448985;32;34971;-66
2022/05/30 02:07:49;;;;;;;5.80;2.85;;;;;;;17.02;51.61;98942.53;4447006;32;33860;-68
2022/05/30 02:10:17;;;;;;;4.55;2.35;;;;;;;17.04;51.35;98953.12;4449056;32;33444;-63
2022/05/30 02:12:44;;;;;;;5.00;2.42;;;;;;;17.07;51.37;98947.38;4449270;32;34776;-64
2022/05/30 02:15:13;;;;;;;4.60;2.70;;;;;;;16.94;52.82;98946.06;4449923;32;33872;-66
2022/05/30 02:17:41;;;;;;;4.87;2.53;;;;;;;17.07;51.97;98940.13;4448025;32;33701;-65
2022/05/30 02:20:09;;;;;;;6.40;2.28;;;;;;;16.99;51.87;98942.88;4448969;32;32800;-63
2022/05/30 02:22:38;;;;;;;4.62;2.10;;;;;;;17.02;51.83;98950.63;4449186;32;33779;-67
2022/05/30 02:25:06;;;;;;;5.85;3.15;;;;;;;16.96;51.94;98951.31;4449088;32;35012;-66
2022/05/30 02:27:33;;;;;;;4.82;1.90;;;;;;;16.97;51.81;98953.84;4448619;32;33555;-64
2022/05/30 02:30:02;;;;;;;5.57;2.33;;;;;;;17.04;51.29;98953.12;4449212;32;34265;-63
2022/05/30 02:32:30;;;;;;;5.18;2.65;;;;;;;16.99;51.51;98951.81;4448057;32;35452;-62
2022/05/30 02:37:44;;;;;;;5.12;2.35;;;;;;;17.08;51.64;98954.47;4449592;32;32155;-65
2022/05/30 02:40:13;;;;;;;4.82;2.50;;;;;;;17.01;51.52;98951.63;4449951;32;33452;-65
2022/05/30 02:42:44;;;;;;;4.93;2.20;;;;;;;17.03;51.55;98957.72;4449662;32;33568;-65
2022/05/30 02:45:13;;;;;;;5.35;2.47;;;;;;;17.03;51.08;98964.97;4449704;32;34203;-63
2022/05/30 02:47:42;;;;;;;11.95;2.78;;;;;;;17.00;50.87;98963.47;4445837;32;33784;-63
2022/05/30 02:50:10;;;;;;;8.07;2.33;;;;;;;17.03;50.73;98975.78;4450330;32;33552;-63
2022/05/30 02:52:38;;;;;;;6.30;2.40;;;;;;;16.93;50.80;98970.59;4451031;32;35070;-63
2022/05/30 02:55:06;;;;;;;4.72;2.62;;;;;;;16.90;51.09;98979.87;4449847;32;33753;-63
2022/05/30 02:57:35;;;;;;;4.32;2.37;;;;;;;16.97;51.22;98980.88;4462563;32;33951;-64
2022/05/30 03:00:04;;;;;;;4.78;2.58;;;;;;;16.95;51.35;98982.06;4450156;32;33507;-63
2022/05/30 03:02:33;;;;;;;4.57;2.28;;;;;;;16.94;51.74;98986.63;4449131;32;35065;-63
2022/05/30 03:05:02;;;;;;;4.35;2.35;;;;;;;16.97;52.26;98988.97;4447808;32;34988;-63
2022/05/30 03:07:29;;;;;;;3.65;2.15;;;;;;;17.11;51.91;98989.25;4450730;32;32467;-65
2022/05/30 03:09:57;;;;;;;5.35;2.87;;;;;;;17.00;51.55;98995.91;4449668;32;33400;-66
2022/05/30 03:12:25;;;;;;;4.82;2.53;;;;;;;16.98;51.54;98993.38;4449837;32;33995;-63
2022/05/30 03:14:53;;;;;;;6.85;2.50;;;;;;;17.04;51.29;98996.41;4449481;32;34605;-63
2022/05/30 03:17:21;;;;;;;4.68;2.55;;;;;;;17.03;51.47;98989.31;4448981;32;32594;-62
2022/05/30 03:19:51;;;;;;;4.47;2.60;;;;;;;16.98;51.33;98995.22;4450479;32;33425;-65
2022/05/30 03:22:20;;;;;;;8.50;3.05;;;;;;;16.82;51.62;99001.56;4449836;32;34045;-64
2022/05/30 03:24:48;;;;;;;7.18;2.47;;;;;;;16.88;51.69;99000.81;4448923;32;33764;-63
2022/05/30 03:27:16;;;;;;;5.68;3.28;;;;;;;16.83;51.89;99005.09;4448406;32;33758;-65
2022/05/30 03:29:44;;;;;;;5.55;2.70;;;;;;;16.83;51.58;99010.50;4450255;32;33981;-66
2022/05/30 03:32:12;;;;;;;6.18;2.55;;;;;;;16.84;51.61;99015.72;4449599;32;33982;-68
2022/05/30 03:34:39;;;;;;;5.05;2.65;;;;;;;16.93;51.12;99013.84;4447476;32;33944;-66
2022/05/30 03:37:07;;;;;;;4.68;2.33;;;;;;;16.84;51.99;99013.00;4449034;32;34868;-66
2022/05/30 03:39:35;;;;;;;5.03;2.62;;;;;;;16.90;52.11;99004.22;4448820;32;33241;-65
2022/05/30 03:42:05;;;;;;;5.03;2.65;;;;;;;16.89;52.40;98999.00;4448170;32;33861;-63
2022/05/30 03:44:34;;;;;;;4.57;2.72;;;;;;;17.10;51.16;99004.66;4450007;32;34985;-64
2022/05/30 03:47:01;;;;;;;4.60;2.42;;;;;;;16.95;51.04;99003.69;4448296;32;32757;-63
2022/05/30 03:49:29;;;;;;;6.00;2.75;;;;;;;16.96;51.33;99000.81;4445896;32;33245;-64
2022/05/30 03:51:58;;;;;;;5.90;2.62;;;;;;;16.68;51.69;99005.75;4450025;32;34843;-64
2022/05/30 03:54:27;;;;;;;5.95;2.83;;;;;;;17.05;50.80;99000.81;4448556;32;33988;-66
2022/05/30 03:56:54;;;;;;;5.50;2.85;;;;;;;16.95;50.91;98996.44;4449142;32;33812;-63
2022/05/30 03:59:22;;;;;;;4.12;2.25;;;;;;;16.94;50.91;98997.44;4448898;32;34318;-67
2022/05/30 04:01:50;;;;;;;5.43;2.78;;;;;;;16.92;51.58;98996.78;4448858;32;33656;-65
2022/05/30 04:04:18;;;;;;;5.45;2.78;;;;;;;16.93;52.09;98995.75;4446052;32;32810;-68
2022/05/30 04:06:46;;;;;;;5.82;2.97;;;;;;;17.03;51.73;99008.25;4448669;32;33909;-67
2022/05/30 04:09:13;;;;;;;6.28;2.80;;;;;;;17.15;51.06;99004.16;4446070;32;33223;-73
2022/05/30 04:11:43;;;;;;;6.03;2.85;;;;;;;17.20;51.31;99004.44;4448330;32;33029;-64
2022/05/30 04:14:12;;;;;;;5.05;3.08;;;;;;;17.19;51.42;98994.66;4448648;32;34039;-64
2022/05/30 04:16:39;;;;;;;6.55;2.95;;;;;;;17.31;51.68;98993.25;4447496;32;34876;-66
2022/05/30 04:19:08;;;;;;;6.87;3.00;;;;;;;17.10;51.61;99006.50;4446805;32;32883;-65
2022/05/30 04:21:35;;;;;;;4.78;2.90;;;;;;;17.42;50.95;99000.13;4452595;32;33330;-64
2022/05/30 04:24:04;;;;;;;4.72;2.65;;;;;;;17.44;50.66;99015.16;4449709;32;33085;-67
2022/05/30 04:26:33;;;;;;;5.85;2.95;;;;;;;17.40;50.82;99008.44;4451852;32;34579;-65
2022/05/30 04:29:01;;;;;;;6.53;2.72;;;;;;;17.40;51.49;99016.53;4450340;32;33475;-65
2022/05/30 04:31:29;;;;;;;3.97;2.33;;;;;;;17.44;50.95;99012.47;4449060;32;33759;-65
2022/05/30 04:33:57;;;;;;;4.03;2.40;;;;;;;17.52;50.67;99021.56;4446896;32;34953;-65
2022/05/30 04:36:25;;;;;;;7.55;2.90;;;;;;;17.54;50.24;99023.06;4450866;32;33766;-65
2022/05/30 04:38:52;;;;;;;5.15;2.87;;;;;;;17.15;50.56;99020.38;4447620;32;33191;-65
2022/05/30 04:41:22;;;;;;;5.93;2.40;;;;;;;17.17;50.50;99027.28;4442911;32;34805;-65
2022/05/30 04:43:51;;;;;;;6.20;3.03;;;;;;;16.92;51.04;99031.09;4450683;32;34905;-66
2022/05/30 04:46:22;;;;;;;5.30;2.20;;;;;;;16.99;51.25;99024.81;4446794;32;34010;-66
2022/05/30 04:48:51;;;;;;;4.60;2.42;;;;;;;17.15;51.27;99020.38;4450066;32;31872;-65
2022/05/30 04:51:18;;;;;;;3.90;2.60;;;;;;;16.79;51.99;99036.16;4441714;32;36555;-65
2022/05/30 04:53:46;;;;;;;5.32;2.42;;;;;;;16.62;51.66;99025.34;4449914;32;32548;-65
2022/05/30 04:56:19;;;;;;;7.97;2.90;;;;;;;16.88;51.35;99037.81;4448274;32;33551;-65
2022/05/30 04:58:50;;;;;;;6.65;2.70;;;;;;;16.56;51.93;99033.28;4443644;32;31939;-66
2022/05/30 05:01:18;;;;;;;4.43;2.50;;;;;;;16.31;53.25;99027.91;4445722;32;33004;-65
2022/05/30 05:03:46;;;;;;;4.93;2.40;;;;;;;16.43;52.50;99033.81;4450672;32;34749;-65
2022/05/30 05:06:17;;;;;;;4.37;2.40;;;;;;;16.75;52.33;99038.34;4448834;32;34023;-66
2022/05/30 05:08:55;;;;;;;5.28;2.65;;;;;;;16.93;51.36;99051.69;4447958;32;33042;-65
2022/05/30 05:11:26;;;;;;;4.05;2.80;;;;;;;16.73;52.15;99051.19;4451208;32;33775;-66
2022/05/30 05:13:56;;;;;;;4.43;2.42;;;;;;;16.67;52.56;99052.69;4441949;32;33852;-64
2022/05/30 05:16:31;;;;;;;4.28;2.58;;;;;;;16.70;52.43;99044.25;4451217;32;32524;-66
2022/05/30 05:19:00;;;;;;;5.32;2.80;;;;;;;17.13;51.63;99050.25;4449930;32;33387;-65
2022/05/30 05:21:34;;;;;;;4.97;2.62;;;;;;;16.71;52.57;99045.94;4452814;32;32828;-68
2022/05/30 05:24:04;;;;;;;6.97;3.22;;;;;;;16.93;51.87;99057.09;4449461;32;35305;-67
2022/05/30 05:26:33;;;;;;;4.22;2.40;;;;;;;17.13;51.80;99068.34;4448997;32;34882;-65
2022/05/30 05:29:02;;;;;;;4.78;2.40;;;;;;;17.51;51.42;99064.00;4449633;32;33858;-65
2022/05/30 05:31:34;;;;;;;5.60;2.75;;;;;;;17.16;52.22;99071.56;4446671;32;35026;-63
2022/05/30 05:34:06;;;;;;;7.93;2.65;;;;;;;17.29;51.52;99071.00;4448180;32;33748;-67
2022/05/30 05:36:36;;;;;;;6.60;2.78;;;;;;;17.73;50.14;99070.50;4448705;32;32487;-65
2022/05/30 05:39:05;;;;;;;5.25;2.85;;;;;;;17.22;51.44;99078.13;4448447;32;33327;-65
2022/05/30 05:41:35;;;;;;;6.30;2.70;;;;;;;16.85;53.36;99086.81;4449931;32;33140;-66
2022/05/30 05:44:03;;;;;;;4.43;2.60;;;;;;;17.47;51.41;99087.03;4449192;32;33943;-65
2022/05/30 05:46:32;;;;;;;4.37;2.20;;;;;;;17.80;51.10;99084.19;4447000;32;34140;-66
2022/05/30 05:49:00;;;;;;;4.50;2.62;;;;;;;17.61;51.31;99088.13;4449911;32;34949;-66
2022/05/30 05:51:27;;;;;;;5.97;2.67;;;;;;;17.98;50.76;99084.78;4448088;32;33578;-67
2022/05/30 05:53:56;;;;;;;4.62;2.72;;;;;;;17.97;50.37;99084.94;4447400;32;35201;-66
2022/05/30 05:56:28;;;;;;;5.78;2.70;;;;;;;17.48;51.44;99090.56;4448499;32;33678;-66
2022/05/30 05:58:56;;;;;;;5.00;2.78;;;;;;;17.99;50.46;99101.87;4449989;32;33314;-65
2022/05/30 06:01:27;;;;;;;6.00;2.70;;;;;;;17.70;50.26;99093.34;4448771;32;33502;-64
2022/05/30 06:03:57;;;;;;;5.22;2.67;;;;;;;18.11;49.57;99100.44;4445713;32;34683;-66
2022/05/30 06:06:26;;;;;;;4.30;2.55;;;;;;;17.90;48.99;99098.34;4450759;32;33611;-67
2022/05/30 06:08:56;;;;;;;4.62;2.75;;;;;;;18.14;49.15;99102.78;4448045;32;33998;-68
2022/05/30 06:11:24;;;;;;;4.60;2.25;;;;;;;18.41;48.45;99100.56;4447915;32;34629;-66
2022/05/30 06:13:53;;;;;;;4.93;2.62;;;;;;;18.51;47.95;99098.47;4447749;32;33746;-66
2022/05/30 06:16:30;;;;;;;8.82;2.83;;;;;;;18.14;48.66;99100.91;4448798;32;33733;-67
2022/05/30 06:18:59;;;;;;;6.37;2.95;;;;;;;18.44;48.40;99101.06;4448379;32;33645;-70
2022/05/30 06:21:30;;;;;;;8.23;3.10;;;;;;;18.48;48.70;99094.25;4448422;32;33665;-66
2022/05/30 06:23:59;;;;;;;5.53;2.58;;;;;;;18.33;49.36;99099.63;4447766;32;33050;-67
2022/05/30 06:26:28;;;;;;;4.95;2.60;;;;;;;18.42;49.06;99111.22;4448673;32;34658;-67
2022/05/30 06:28:57;;;;;;;4.95;2.95;;;;;;;18.71;47.51;99115.91;4447250;32;32082;-67
2022/05/30 06:31:27;;;;;;;5.80;2.58;;;;;;;18.90;47.03;99114.59;4448426;32;33777;-68
2022/05/30 06:33:58;;;;;;;4.85;2.65;;;;;;;18.51;48.64;99115.56;4446730;32;33255;-68
2022/05/30 06:36:26;;;;;;;6.47;2.80;;;;;;;18.55;47.34;99116.87;4450567;32;33100;-68
2022/05/30 06:38:55;;;;;;;4.07;2.28;;;;;;;18.62;46.86;99114.31;4448857;32;33100;-67
2022/05/30 06:41:24;;;;;;;4.55;2.47;;;;;;;18.42;47.88;99121.22;4448643;32;33552;-69
2022/05/30 06:44:00;;;;;;;5.00;2.33;;;;;;;18.58;46.18;99121.94;4450339;32;35177;-67
2022/05/30 06:46:40;;;;;;;5.12;3.85;;;;;;;18.82;46.46;99129.06;4449150;32;32665;-69
2022/05/30 06:49:12;;;;;;;8.43;2.85;;;;;;;18.77;47.10;99126.03;4448109;32;34720;-69
2022/05/30 06:51:40;;;;;;;7.62;2.45;;;;;;;18.98;46.54;99121.81;4441225;32;34436;-70
2022/05/30 06:54:08;;;;;;;5.30;2.60;;;;;;;18.91;46.39;99132.56;4449252;32;32530;-68
2022/05/30 06:58:11;;;;;;;5.07;2.53;;;;;;;18.78;46.74;99126.88;4449210;32;33639;-67
2022/05/30 06:59:28;;;;;;;8.35;2.90;;;;;;;18.74;47.84;99131.84;4450504;32;32127;-66
2022/05/30 07:01:59;;;;;;;8.75;2.65;;;;;;;18.91;45.96;99137.09;4443968;32;33950;-67
2022/05/30 07:04:32;;;;;;;7.43;3.67;;;;;;;18.55;47.35;99130.41;4446535;32;33523;-67
2022/05/30 07:07:05;;;;;;;5.40;2.62;;;;;;;18.66;47.07;99126.47;4448972;32;33750;-69
2022/05/30 07:09:37;;;;;;;7.47;3.03;;;;;;;19.20;46.30;99128.22;4448769;32;32539;-66
2022/05/30 07:12:08;;;;;;;6.28;2.50;;;;;;;19.18;46.27;99122.13;4446242;32;32301;-68
2022/05/30 07:14:38;;;;;;;6.00;2.65;;;;;;;19.49;44.87;99125.53;4448803;32;34923;-66
2022/05/30 07:17:08;;;;;;;5.28;2.75;;;;;;;19.15;46.65;99128.75;4449769;32;34644;-68
2022/05/30 07:19:36;;;;;;;6.72;2.33;;;;;;;19.21;43.69;99119.03;4448813;32;32752;-69
2022/05/30 07:22:05;;;;;;;5.90;2.70;;;;;;;19.18;43.57;99119.41;4450994;32;32652;-68
2022/05/30 07:24:37;;;;;;;5.65;2.72;;;;;;;19.52;43.05;99118.88;4447604;32;34773;-70
2022/05/30 07:27:15;;;;;;;8.93;2.12;;;;;;;19.14;42.99;99116.22;4449902;32;32435;-66
2022/05/30 07:29:44;;;;;;;3.40;1.90;;;;;;;19.29;42.13;99119.81;4444534;32;120895;-69
2022/05/30 07:32:26;;;;;;;4.50;1.90;;;;;;;19.53;42.22;99124.09;4451452;32;32263;-69
2022/05/30 07:35:07;;;;;;;3.22;1.75;;;;;;;19.50;41.28;99127.19;4435701;32;32681;-67
2022/05/30 07:37:36;;;;;;;4.80;2.00;;;;;;;19.16;43.00;99116.03;4445783;32;33987;-66
2022/05/30 07:40:05;;;;;;;4.37;2.08;;;;;;;19.18;42.08;99120.25;4452029;32;33284;-69
2022/05/30 07:42:33;;;;;;;6.28;2.20;;;;;;;18.90;42.59;99130.84;4451905;32;34064;-69
2022/05/30 07:45:01;;;;;;;6.53;1.90;;;;;;;19.24;42.54;99124.09;4449579;32;35335;-66
2022/05/30 07:47:29;;;;;;;4.60;1.95;;;;;;;19.07;41.40;99129.69;4452635;32;32703;-67
2022/05/30 07:50:02;;;;;;;2.58;1.55;;;;;;;19.30;40.25;99126.06;4452244;32;32370;-68
2022/05/30 07:52:31;;;;;;;5.43;1.80;;;;;;;19.50;40.54;99121.75;4449407;32;33872;-69
2022/05/30 07:55:02;;;;;;;6.00;2.15;;;;;;;19.69;40.30;99116.84;4450309;32;33669;-65
2022/05/30 08:00:25;;;;;;;7.12;1.98;;;;;;;19.27;40.75;99132.72;4451961;32;33593;-68
2022/05/30 08:02:57;;;;;;;5.87;2.25;;;;;;;19.58;41.21;99126.25;4450406;32;32522;-65
2022/05/30 08:05:26;;;;;;;5.03;2.92;;;;;;;19.30;41.72;99135.06;4451704;32;35396;-67
2022/05/30 08:07:58;;;;;;;5.53;2.62;;;;;;;18.50;43.68;99126.59;4445705;32;33746;-66
2022/05/30 08:10:27;;;;;;;5.43;2.30;;;;;;;18.87;42.46;99133.09;4451517;32;33671;-67
2022/05/30 08:12:55;;;;;;;8.07;2.70;;;;;;;18.94;43.03;99134.03;4452692;32;34905;-67
2022/05/30 08:15:23;;;;;;;3.53;2.03;;;;;;;19.42;41.46;99130.03;4452419;32;34969;-66
2022/05/30 08:17:55;;;;;;;3.35;1.77;;;;;;;19.53;41.81;99129.53;4449250;32;32217;-67
2022/05/30 08:20:23;;;;;;;6.78;2.50;;;;;;;19.62;40.68;99141.16;4449760;32;34405;-68
2022/05/30 08:22:51;;;;;;;7.00;1.90;;;;;;;19.87;41.23;99136.31;4452178;32;33749;-69
2022/05/30 08:25:19;;;;;;;5.00;2.30;;;;;;;19.84;38.53;99138.53;4451521;32;33853;-66
2022/05/30 08:27:48;;;;;;;6.05;1.70;;;;;;;20.16;38.25;99146.28;4452467;32;33942;-67
2022/05/30 08:30:19;;;;;;;4.47;1.70;;;;;;;19.02;42.81;99148.37;4451286;32;33432;-67
2022/05/30 08:32:48;;;;;;;4.37;2.40;;;;;;;19.60;40.48;99158.66;4450228;32;32906;-67
2022/05/30 08:35:22;;;;;;;4.62;1.90;;;;;;;19.70;40.67;99156.53;4452194;32;32445;-68
2022/05/30 08:37:55;;;;;;;6.72;2.70;;;;;;;19.98;38.87;99148.53;4449162;32;33766;-68
2022/05/30 08:43:16;;;;;;;4.40;1.87;;;;;;;20.26;38.98;99129.66;4450605;32;34485;-66
2022/05/30 08:45:46;;;;;;;4.78;2.00;;;;;;;19.84;38.83;99114.97;4451170;32;35116;-69
2022/05/30 08:48:18;;;;;;;5.80;1.80;;;;;;;20.23;38.51;99121.88;4451761;32;33109;-69
2022/05/30 08:51:22;;;;;;;5.32;2.12;;;;;;;20.17;39.90;99122.66;4448333;32;33181;-66
2022/05/30 08:54:05;;;;;;;4.18;1.60;;;;;;;19.96;38.81;99137.00;4442157;32;32357;-67
2022/05/30 08:56:35;;;;;;;4.10;1.80;;;;;;;20.06;38.53;99136.72;4449509;32;33824;-66
2022/05/30 08:59:42;;;;;;;6.30;3.12;;;;;;;20.67;37.78;99138.06;4443641;32;35005;-68
2022/05/30 09:02:34;;;;;;;5.55;1.70;;;;;;;19.72;40.43;99155.31;4451450;32;33418;-66
2022/05/30 09:05:07;;;;;;;5.80;2.10;;;;;;;20.09;39.59;99158.06;4450404;32;34483;-66
2022/05/30 09:08:01;;;;;;;3.37;1.92;;;;;;;20.21;38.42;99164.69;4451796;32;32576;-64
2022/05/30 09:10:42;;;;;;;3.62;1.67;;;;;;;19.85;39.37;99153.81;4451283;32;34690;-64
2022/05/30 09:13:23;;;;;;;6.72;2.67;;;;;;;19.73;39.68;99156.16;4438829;32;34981;-65
2022/05/30 09:16:02;;;;;;;5.22;2.00;;;;;;;19.43;39.77;99158.81;4452859;32;33869;-66
2022/05/30 09:18:36;;;;;;;6.45;1.92;;;;;;;20.30;38.79;99165.44;4441361;32;34878;-64
2022/05/30 09:21:04;;;;;;;4.80;1.90;;;;;;;20.65;37.85;99164.59;4451016;32;34117;-65
2022/05/30 09:23:32;;;;;;;3.92;1.83;;;;;;;20.47;38.11;99162.28;4448544;32;31964;-67
2022/05/30 09:26:00;;;;;;;3.78;1.58;;;;;;;20.83;37.50;99160.56;4453821;32;34484;-66
2022/05/30 09:28:35;;;;;;;3.65;1.60;;;;;;;20.66;38.30;99169.00;4449102;32;35713;-65
2022/05/30 09:31:20;;;;;;;7.80;1.85;;;;;;;20.19;38.76;99177.63;4452915;32;34892;-65
2022/05/30 09:33:56;;;;;;;5.55;1.90;;;;;;;20.85;38.35;99167.50;4453227;32;32764;-64
2022/05/30 09:36:27;;;;;;;;;;;;;;;20.27;37.60;99163.94;4454446;32;32562;-65
2022/05/30 09:39:00;;;;;;;7.22;2.12;;;;;;;20.79;36.93;99164.72;4453127;32;33775;-66
2022/05/30 09:41:46;;;;;;;3.45;1.50;;;;;;;20.91;37.17;99164.00;4450442;32;34952;-64
2022/05/30 09:44:17;;;;;;;3.80;2.10;;;;;;;20.78;38.04;99165.78;4451540;32;33195;-63
2022/05/30 09:46:52;;;;;;;3.83;1.40;;;;;;;20.61;36.81;99185.06;4453971;32;32566;-64
2022/05/30 09:49:41;;;;;;;4.45;1.90;;;;;;;20.68;37.99;99177.81;4441967;32;33797;-63
2022/05/30 09:52:34;;;;;;;3.17;1.55;;;;;;;20.62;37.59;99186.72;4444446;32;33519;-64
2022/05/30 09:55:34;;;;;;;7.85;1.98;;;;;;;20.62;36.40;99186.72;4444686;32;33118;-64
2022/05/30 09:58:04;;;;;;;3.05;1.73;;;;;;;20.68;37.84;99188.69;4438635;32;33857;-64
2022/05/30 10:00:33;;;;;;;3.35;1.60;;;;;;;20.42;36.82;99189.22;4450419;32;33550;-66
2022/05/30 10:03:21;;;;;;;5.25;1.77;;;;;;;20.64;36.47;99186.53;4451711;32;32527;-67
2022/05/30 10:05:49;;;;;;;5.50;2.30;;;;;;;20.42;37.76;99193.81;4446420;32;33547;-66
2022/05/30 10:08:30;;;;;;;5.37;2.08;;;;;;;20.57;36.16;99191.06;4451402;32;34710;-65
2022/05/30 10:10:58;;;;;;;5.65;1.77;;;;;;;20.28;36.70;99190.06;4452176;32;32788;-67
2022/05/30 10:13:35;;;;;;;4.95;1.52;;;;;;;20.62;37.03;99196.78;4448174;32;32928;-65
2022/05/30 10:16:15;;;;;;;;;;;;;;;20.66;37.55;99187.19;4451876;32;32110;-65
2022/05/30 10:18:59;;;;;;;4.87;1.92;;;;;;;20.30;37.13;99190.72;4441976;32;33862;-68
2022/05/30 10:28:14;;;;;;;4.37;1.50;;;;;;;20.06;37.87;99191.88;4441807;32;34726;-65
2022/05/30 10:28:14;;;;;;;4.47;1.70;;;;;;;20.48;38.93;99191.16;4441906;32;32043;-65
2022/05/30 10:31:02;;;;;;;5.75;1.77;;;;;;;20.58;38.23;99198.19;4418392;32;32460;-65
2022/05/30 10:33:54;;;;;;;3.62;1.62;;;;;;;21.03;35.90;99194.25;4450131;32;32720;-64
2022/05/30 10:36:34;;;;;;;2.85;1.37;;;;;;;20.78;35.59;99199.25;4448179;32;34243;-66
2022/05/30 10:39:44;;;;;;;5.53;1.60;;;;;;;20.52;36.88;99202.53;4441872;32;32308;-66
2022/05/30 10:42:23;;;;;;;6.37;1.80;;;;;;;20.21;37.25;99200.87;4446890;32;33707;-66
2022/05/30 10:44:57;;;;;;;3.45;1.48;;;;;;;20.25;37.41;99204.88;4437258;32;32426;-64
2022/05/30 10:47:45;;;;;;;5.18;1.90;;;;;;;20.25;38.17;99207.59;4446183;32;34418;-64
2022/05/30 10:50:21;;;;;;;7.62;2.22;;;;;;;20.62;36.90;99213.94;4447824;32;32996;-64
2022/05/30 10:53:03;;;;;;;7.30;1.73;;;;;;;20.64;36.30;99197.41;4443788;32;33100;-65
2022/05/30 10:55:35;;;;;;;3.10;1.83;;;;;;;20.21;36.51;99203.56;4443035;32;34935;-64
2022/05/30 10:58:14;;;;;;;3.08;1.48;;;;;;;20.64;36.31;99201.00;4441497;32;33493;-64
2022/05/30 11:00:48;;;;;;;4.72;1.80;;;;;;;20.66;36.88;99206.22;4433760;32;33621;-62
2022/05/30 11:03:22;;;;;;;7.97;1.62;;;;;;;20.81;36.85;99206.19;4439380;32;33679;-65
2022/05/30 11:05:53;;;;;;;3.93;1.60;;;;;;;20.96;36.44;99212.38;4448599;32;34098;-64
2022/05/30 11:08:55;;;;;;;6.32;1.52;;;;;;;20.38;36.43;99215.06;4446548;32;34321;-63
2022/05/30 11:11:35;;;;;;;7.35;1.62;;;;;;;20.55;35.78;99221.16;4447897;32;33213;-63
2022/05/30 11:14:26;;;;;;;5.72;1.37;;;;;;;20.72;36.03;99235.38;4445546;32;32750;-63
2022/05/30 11:17:30;;;;;;;3.42;1.50;;;;;;;20.88;36.62;99229.69;4437224;32;35187;-63
2022/05/30 11:20:13;;;;;;;4.55;1.60;;;;;;;20.82;37.09;99227.72;4439607;32;33418;-67
2022/05/30 11:22:47;;;;;;;5.68;1.60;;;;;;;20.70;36.06;99240.97;4447577;32;31872;-65
2022/05/30 11:25:17;;;;;;;3.90;1.40;;;;;;;20.35;36.85;99245.38;4435124;32;33511;-64
2022/05/30 11:28:18;;;;;;;4.95;1.75;;;;;;;19.75;38.70;99246.41;4442986;32;34476;-67
2022/05/30 11:30:53;;;;;;;5.53;1.33;;;;;;;20.44;36.66;99233.34;4457310;32;32713;-65
2022/05/30 11:33:39;;;;;;;4.20;1.90;;;;;;;20.55;36.14;99229.31;4441894;32;33378;-67
2022/05/30 11:36:18;;;;;;;3.85;1.77;;;;;;;19.93;35.82;99232.44;4449816;32;34929;-66
2022/05/30 11:39:02;;;;;;;4.57;2.05;;;;;;;20.15;36.12;99234.22;4446704;32;32668;-66
2022/05/30 11:41:46;;;;;;;7.80;1.80;;;;;;;20.19;36.52;99230.13;4443813;32;35011;-64
2022/05/30 11:44:20;;;;;;;3.08;1.60;;;;;;;20.11;37.46;99230.19;4446966;32;31998;-65
2022/05/30 11:47:10;;;;;;;6.43;1.75;;;;;;;20.69;35.76;99222.16;4439028;32;33968;-63
2022/05/30 11:49:43;;;;;;;4.30;2.33;;;;;;;20.27;36.13;99222.87;4439718;32;35156;-64
2022/05/30 11:52:44;;;;;;;5.47;2.12;;;;;;;20.41;36.04;99227.44;4444261;32;33198;-64
2022/05/30 11:55:12;;;;;;;4.22;2.25;;;;;;;20.32;36.24;99217.69;4443495;32;33623;-65
2022/05/30 11:57:53;;;;;;;4.12;1.98;;;;;;;20.63;35.90;99222.91;4451119;32;32498;-68
2022/05/30 12:00:24;;;;;;;4.87;2.00;;;;;;;20.55;37.22;99225.78;4443636;32;33898;-65
2022/05/30 12:03:50;;;;;;;4.03;1.85;;;;;;;20.43;35.58;99231.66;4443443;32;33604;-66
2022/05/30 12:06:38;;;;;;;5.95;2.20;;;;;;;20.62;35.65;99224.81;4411949;32;33358;-68
2022/05/30 12:09:06;;;;;;;4.85;1.98;;;;;;;20.66;36.26;99223.37;4413139;32;33962;-65
2022/05/30 12:11:55;;;;;;;3.20;1.58;;;;;;;20.48;36.04;99226.50;4433005;32;32669;-64
2022/05/30 12:14:57;;;;;;;3.78;1.70;;;;;;;20.79;35.36;99225.41;4444209;32;34643;-65
2022/05/30 12:23:49;;;;;;;5.43;1.87;;;;;;;20.98;35.53;99229.34;4439061;32;35212;-66